Time;durP1;ratioP1;P1;durP2;ratioP2;P2;SDS_P1;SDS_P2;PMS_P1;PMS_P2;Temp;Humidity;BMP_temperature;BMP_pressure;BME280_temperature;BME280_humidity;BME280_pressure;Samples;Min_cycle;Max_cycle;Signal;HPM_P1;HPM_P2
2021/09/01 00:01:03;;;;;;;17.42;13.13;;;;;;;19.44;90.92;100047.59;1770199;81;21177;-69
2021/09/01 00:03:36;;;;;;;19.57;13.35;;;;;;;19.40;90.90;100047.69;1770784;81;21130;-68
2021/09/01 00:06:09;;;;;;;17.70;13.43;;;;;;;19.36;90.77;100053.09;1769979;81;21165;-68
2021/09/01 00:08:44;;;;;;;18.73;13.88;;;;;;;19.32;90.96;100050.47;1769095;81;21158;-70
2021/09/01 00:11:18;;;;;;;20.65;12.90;;;;;;;19.28;91.10;100048.41;1770165;81;21268;-69
2021/09/01 00:13:51;;;;;;;20.70;14.60;;;;;;;19.26;91.33;100053.09;1770664;81;21153;-68
2021/09/01 00:16:27;;;;;;;21.77;13.93;;;;;;;19.24;91.42;100051.16;1769670;81;21288;-69
2021/09/01 00:19:06;;;;;;;19.50;13.60;;;;;;;19.22;91.48;100057.17;1769377;81;21273;-69
2021/09/01 00:21:39;;;;;;;23.90;14.38;;;;;;;19.20;91.63;100053.37;1769959;81;21744;-70
2021/09/01 00:24:12;;;;;;;;;;;;;;;19.18;91.71;100050.59;1773591;81;21665;-69
2021/09/01 00:26:45;;;;;;;19.12;13.68;;;;;;;19.18;91.79;100056.73;1769303;81;20247;-69
2021/09/01 00:29:19;;;;;;;16.62;13.18;;;;;;;19.15;91.85;100057.14;1771100;81;21661;-68
2021/09/01 00:31:52;;;;;;;24.50;13.18;;;;;;;19.13;91.84;100057.82;1770366;81;21261;-69
2021/09/01 00:34:25;;;;;;;16.70;13.38;;;;;;;19.11;91.83;100061.19;1771005;81;21149;-69
2021/09/01 00:36:58;;;;;;;18.57;13.65;;;;;;;19.11;92.01;100053.72;1769548;81;21867;-69
2021/09/01 00:39:32;;;;;;;22.70;14.47;;;;;;;19.12;92.12;100056.20;1770583;81;21261;-69
2021/09/01 00:42:08;;;;;;;22.58;14.87;;;;;;;19.14;92.11;100057.32;1770021;81;21180;-69
2021/09/01 00:44:41;;;;;;;19.35;14.35;;;;;;;19.13;91.93;100061.80;1770889;81;21130;-68
2021/09/01 00:47:18;;;;;;;;;;;;;;;19.11;91.91;100063.01;1771907;81;21823;-68
2021/09/01 00:49:52;;;;;;;23.38;14.83;;;;;;;19.08;91.79;100059.45;1770634;81;20231;-69
2021/09/01 00:52:25;;;;;;;20.57;14.80;;;;;;;19.03;91.91;100061.36;1770136;81;21205;-69
2021/09/01 00:55:00;;;;;;;20.30;15.18;;;;;;;19.00;91.83;100053.78;1770892;81;21172;-70
2021/09/01 00:57:35;;;;;;;19.90;15.40;;;;;;;18.97;91.82;100058.64;1769323;81;21272;-69
2021/09/01 01:00:14;;;;;;;23.10;16.75;;;;;;;18.93;91.74;100059.55;1749567;81;21263;-69
2021/09/01 01:02:44;;;;;;;22.95;14.95;;;;;;;18.91;91.79;100062.09;1769760;81;21256;-69
2021/09/01 01:05:18;;;;;;;20.32;15.15;;;;;;;18.88;91.73;100060.64;1770783;81;21141;-69
2021/09/01 01:07:51;;;;;;;20.08;14.40;;;;;;;18.88;91.78;100067.77;1770043;81;21285;-68
2021/09/01 01:10:25;;;;;;;18.35;14.75;;;;;;;18.85;91.83;100061.02;1769063;81;21138;-68
2021/09/01 01:12:58;;;;;;;21.30;15.23;;;;;;;18.87;92.18;100057.66;1769823;81;21272;-70
2021/09/01 01:15:32;;;;;;;21.33;15.58;;;;;;;18.89;92.39;100054.30;1768938;81;21193;-69
2021/09/01 01:18:12;;;;;;;19.98;15.60;;;;;;;18.93;92.63;100052.92;1769867;81;21293;-69
2021/09/01 01:20:49;;;;;;;21.25;15.45;;;;;;;19.00;92.87;100060.41;1772180;80;21678;-69
2021/09/01 01:23:26;;;;;;;19.10;15.43;;;;;;;19.10;93.10;100063.54;1772727;81;21280;-69
2021/09/01 01:25:59;;;;;;;24.25;16.82;;;;;;;19.21;93.10;100063.48;1773890;81;21265;-69
2021/09/01 01:28:33;;;;;;;20.92;16.70;;;;;;;19.33;93.03;100059.26;1772840;81;21161;-69
2021/09/01 01:31:06;;;;;;;24.23;16.00;;;;;;;19.44;92.86;100057.39;1774030;81;21240;-69
2021/09/01 01:33:39;;;;;;;22.35;16.23;;;;;;;19.53;92.54;100056.73;1773153;81;21200;-68
2021/09/01 01:36:12;;;;;;;25.60;17.35;;;;;;;19.62;92.17;100063.50;1773971;81;21267;-69
2021/09/01 01:38:45;;;;;;;25.80;17.32;;;;;;;19.68;91.88;100060.06;1772904;81;21308;-70
2021/09/01 01:41:18;;;;;;;25.50;19.07;;;;;;;19.76;91.77;100066.00;1774021;81;21272;-69
2021/09/01 01:43:51;;;;;;;25.17;18.83;;;;;;;19.83;91.59;100064.69;1772984;81;21169;-69
2021/09/01 01:46:25;;;;;;;28.25;20.17;;;;;;;19.90;91.26;100063.69;1774373;81;21379;-69
2021/09/01 01:48:58;;;;;;;29.82;19.50;;;;;;;19.96;90.98;100052.78;1772772;81;21223;-69
2021/09/01 01:51:31;;;;;;;27.20;20.35;;;;;;;20.03;90.75;100057.59;1773997;81;21181;-69
2021/09/01 01:54:05;;;;;;;26.20;19.55;;;;;;;20.09;90.40;100064.24;1772906;81;21149;-69
2021/09/01 01:56:39;;;;;;;27.22;21.23;;;;;;;20.13;90.08;100054.84;1773912;81;21332;-69
2021/09/01 01:59:14;;;;;;;30.62;21.00;;;;;;;20.18;89.84;100060.37;1772798;81;21815;-68
2021/09/01 02:01:49;;;;;;;34.35;21.37;;;;;;;20.25;89.64;100055.11;1774164;81;21249;-69
2021/09/01 02:04:22;;;;;;;29.77;21.07;;;;;;;20.30;89.42;100061.94;1772739;81;21308;-68
2021/09/01 02:06:55;;;;;;;37.00;21.68;;;;;;;20.37;89.13;100073.94;1773885;81;21268;-68
2021/09/01 02:09:28;;;;;;;28.00;20.60;;;;;;;20.41;88.78;100075.16;1772870;81;21796;-68
2021/09/01 02:12:02;;;;;;;30.00;20.05;;;;;;;20.45;88.47;100080.36;1774012;81;21315;-68
2021/09/01 02:14:35;;;;;;;29.72;21.17;;;;;;;20.50;88.10;100073.92;1772792;81;21276;-68
2021/09/01 02:17:08;;;;;;;33.98;21.37;;;;;;;20.52;87.77;100078.02;1774033;81;21271;-69
2021/09/01 02:19:42;;;;;;;28.38;21.45;;;;;;;20.56;87.47;100077.11;1772111;81;21185;-68
2021/09/01 02:22:17;;;;;;;32.33;21.37;;;;;;;20.60;87.29;100079.66;1773937;81;21144;-68
2021/09/01 02:24:50;;;;;;;32.15;22.40;;;;;;;20.64;87.23;100087.53;1772836;81;21285;-68
2021/09/01 02:27:23;;;;;;;33.33;22.93;;;;;;;20.69;87.12;100087.73;1773778;81;21304;-69
2021/09/01 02:29:57;;;;;;;32.63;22.20;;;;;;;20.73;86.81;100084.45;1772902;81;21173;-69
2021/09/01 02:32:29;;;;;;;;;;;;;;;20.77;86.34;100088.36;1776566;81;21257;-69
2021/09/01 02:35:02;;;;;;;33.45;22.60;;;;;;;20.80;86.09;100085.27;1772811;81;20167;-68
2021/09/01 02:37:36;;;;;;;31.95;22.40;;;;;;;20.81;85.96;100092.74;1773895;81;21169;-68
2021/09/01 02:40:10;;;;;;;29.70;21.75;;;;;;;20.87;85.63;100088.45;1772875;81;21177;-68
2021/09/01 02:42:43;;;;;;;36.03;21.37;;;;;;;20.89;85.46;100088.55;1773960;81;21287;-69
2021/09/01 02:45:17;;;;;;;31.57;21.65;;;;;;;20.92;85.19;100090.78;1772719;81;21185;-69
2021/09/01 02:47:51;;;;;;;29.02;21.52;;;;;;;20.96;84.93;100091.20;1772369;81;21149;-68
2021/09/01 02:50:25;;;;;;;29.60;21.42;;;;;;;20.98;84.60;100087.30;1772722;81;21197;-69
2021/09/01 02:52:59;;;;;;;30.08;21.40;;;;;;;21.00;84.26;100089.75;1774140;81;21304;-68
2021/09/01 02:55:32;;;;;;;33.58;22.27;;;;;;;21.01;84.00;100091.40;1772887;81;21177;-69
2021/09/01 02:58:05;;;;;;;28.55;21.77;;;;;;;21.04;83.86;100093.66;1773756;81;21160;-68
2021/09/01 03:00:38;;;;;;;32.30;22.95;;;;;;;21.04;83.73;100092.32;1772695;81;21268;-69
2021/09/01 03:03:11;;;;;;;34.27;22.22;;;;;;;21.06;83.84;100096.95;1774109;81;21252;-69
2021/09/01 03:05:46;;;;;;;34.20;21.73;;;;;;;21.06;83.71;100098.28;1772919;81;21181;-69
2021/09/01 03:08:19;;;;;;;30.12;22.48;;;;;;;21.05;83.49;100107.28;1773948;81;21256;-69
2021/09/01 03:10:53;;;;;;;30.40;22.17;;;;;;;21.04;83.47;100108.29;1773574;81;21133;-69
2021/09/01 03:13:26;;;;;;;27.50;21.45;;;;;;;21.05;83.51;100112.09;1774088;81;21300;-67
2021/09/01 03:15:59;;;;;;;;;;;;;;;21.09;83.50;100112.52;1776135;81;21686;-68
2021/09/01 03:18:32;;;;;;;31.17;20.25;;;;;;;21.10;83.45;100112.30;1770064;81;20231;-69
2021/09/01 03:21:05;;;;;;;26.73;20.37;;;;;;;21.09;83.24;100115.18;1772489;81;21180;-69
2021/09/01 03:23:38;;;;;;;27.25;19.12;;;;;;;21.09;83.16;100113.84;1774064;81;21268;-69
2021/09/01 03:26:11;;;;;;;25.27;18.42;;;;;;;21.08;82.85;100119.67;1772909;81;21312;-68
2021/09/01 03:28:45;;;;;;;27.98;18.20;;;;;;;21.08;82.77;100118.85;1773508;81;21288;-69
2021/09/01 03:31:18;;;;;;;25.25;18.10;;;;;;;21.10;82.65;100124.28;1772744;81;21269;-69
2021/09/01 03:33:52;;;;;;;22.98;18.00;;;;;;;21.12;82.49;100130.20;1774475;81;21261;-69
2021/09/01 03:36:25;;;;;;;26.45;18.17;;;;;;;21.13;82.23;100126.53;1772738;81;21213;-69
2021/09/01 03:38:58;;;;;;;25.08;18.50;;;;;;;21.15;81.69;100138.30;1773619;81;21299;-69
2021/09/01 03:41:31;;;;;;;25.02;18.70;;;;;;;21.15;81.69;100138.30;1772955;81;21312;-68
2021/09/01 03:44:05;;;;;;;25.85;18.62;;;;;;;21.16;81.59;100146.06;1774065;81;21264;-68
2021/09/01 03:46:37;;;;;;;;;;;;;;;21.17;81.27;100154.37;1775206;81;21789;-68
2021/09/01 03:49:16;;;;;;;23.67;18.27;;;;;;;21.16;81.07;100154.05;1774002;81;20167;-69
2021/09/01 03:51:46;;;;;;;25.43;17.77;;;;;;;21.13;81.05;100154.99;1773546;81;21192;-69
2021/09/01 03:54:19;;;;;;;27.17;18.12;;;;;;;21.13;80.90;100153.66;1773945;81;21248;-70
2021/09/01 03:56:52;;;;;;;24.15;18.05;;;;;;;21.13;80.89;100162.98;1772649;81;21169;-69
2021/09/01 03:59:26;;;;;;;28.27;19.55;;;;;;;21.15;80.79;100166.25;1773565;81;21320;-69
2021/09/01 04:01:59;;;;;;;22.90;18.48;;;;;;;21.16;80.75;100171.35;1772434;81;21316;-69
2021/09/01 04:04:32;;;;;;;23.15;18.82;;;;;;;21.16;80.33;100174.02;1774236;81;21269;-69
2021/09/01 04:07:06;;;;;;;25.10;17.85;;;;;;;21.16;80.14;100160.70;1772540;81;21216;-69
2021/09/01 04:09:39;;;;;;;24.72;19.05;;;;;;;21.19;80.00;100166.95;1773523;81;21268;-69
2021/09/01 04:12:12;;;;;;;26.15;19.17;;;;;;;21.23;79.95;100162.84;1772433;81;21276;-70
2021/09/01 04:14:45;;;;;;;25.55;18.50;;;;;;;21.31;79.79;100169.30;1774331;81;21173;-70
2021/09/01 04:17:19;;;;;;;31.65;18.98;;;;;;;21.38;79.46;100173.27;1772480;81;21189;-70
2021/09/01 04:19:53;;;;;;;27.13;18.82;;;;;;;21.43;79.17;100170.30;1773669;81;21284;-68
2021/09/01 04:22:26;;;;;;;26.23;18.15;;;;;;;21.48;78.94;100172.34;1771921;81;21768;-70
2021/09/01 04:24:59;;;;;;;24.40;17.87;;;;;;;21.53;78.62;100170.38;1770775;81;21161;-69
2021/09/01 04:27:32;;;;;;;24.87;18.20;;;;;;;21.55;78.19;100169.65;1769028;81;21284;-69
2021/09/01 04:30:07;;;;;;;27.22;18.75;;;;;;;21.61;77.87;100176.83;1770205;81;21619;-69
2021/09/01 04:32:40;;;;;;;23.92;17.57;;;;;;;21.64;77.58;100175.08;1770414;81;21264;-69
2021/09/01 04:35:13;;;;;;;24.85;16.30;;;;;;;21.70;77.44;100174.23;1770753;81;21285;-69
2021/09/01 04:37:48;;;;;;;26.40;18.15;;;;;;;21.75;76.62;100181.08;1769092;81;21343;-69
2021/09/01 04:40:22;;;;;;;21.25;17.15;;;;;;;21.77;75.99;100178.52;1749229;81;21804;-69
2021/09/01 04:42:57;;;;;;;26.07;16.27;;;;;;;21.82;75.60;100181.88;1769015;81;21720;-69
2021/09/01 05:28:39;;;;;;;16.00;11.80;;;;;;;28.40;50.09;100173.94;1836928;76;28143;-70
2021/09/01 05:31:13;;;;;;;13.25;10.53;;;;;;;29.23;47.68;100176.59;1821568;77;21299;-69
2021/09/01 05:33:50;;;;;;;11.88;9.75;;;;;;;30.19;45.64;100175.72;1805837;77;21302;-73
2021/09/01 05:36:24;;;;;;;13.88;9.35;;;;;;;31.16;42.87;100172.31;1815312;77;21338;-75
2021/09/01 05:38:57;;;;;;;13.53;8.60;;;;;;;32.10;40.89;100166.64;1756604;80;21326;-73
2021/09/01 05:41:30;;;;;;;11.05;8.33;;;;;;;32.90;38.61;100172.04;1752849;80;21315;-68
2021/09/01 05:44:05;;;;;;;10.38;6.97;;;;;;;33.65;36.86;100178.66;1764949;79;21227;-72
2021/09/01 05:46:37;;;;;;;;;;;;;;;34.37;35.00;100172.81;1763539;80;21284;-70
2021/09/01 05:49:10;;;;;;;9.73;6.90;;;;;;;35.02;33.71;100167.42;1748720;79;20264;-71
2021/09/01 05:51:43;;;;;;;9.00;6.70;;;;;;;35.41;32.03;100168.38;1748065;80;21271;-69
2021/09/01 05:54:16;;;;;;;9.95;6.70;;;;;;;35.82;31.17;100170.02;1749453;80;21273;-70
2021/09/01 05:56:52;;;;;;;8.38;5.58;;;;;;;36.43;30.30;100166.75;1740359;80;21807;-69
2021/09/01 05:59:26;;;;;;;5.60;5.10;;;;;;;37.17;29.47;100174.49;1776253;79;21790;-70
2021/09/01 06:02:03;;;;;;;5.20;4.47;;;;;;;37.88;27.25;100165.18;1781720;79;21342;-72
2021/09/01 06:04:39;;;;;;;6.78;4.60;;;;;;;38.41;26.02;100163.78;1742236;81;21290;-70
2021/09/01 06:07:16;;;;;;;5.03;3.98;;;;;;;38.82;25.47;100164.65;1766397;79;21291;-70
2021/09/01 06:09:49;;;;;;;4.67;3.60;;;;;;;39.26;24.58;100170.83;1766019;79;21319;-71
2021/09/01 06:12:28;;;;;;;4.75;3.55;;;;;;;39.66;24.02;100170.75;1760277;79;21323;-71
2021/09/01 06:15:01;;;;;;;4.65;3.25;;;;;;;40.03;23.09;100174.59;1784553;79;21335;-69
2021/09/01 06:17:36;;;;;;;5.35;3.22;;;;;;;40.25;22.47;100168.75;1781563;78;21833;-72
2021/09/01 06:20:10;;;;;;;3.87;3.22;;;;;;;40.51;21.90;100174.84;1774782;78;21291;-72
2021/09/01 06:22:43;;;;;;;5.42;3.22;;;;;;;40.75;21.34;100180.42;1778578;78;21900;-71
2021/09/01 06:25:16;;;;;;;4.28;3.45;;;;;;;40.99;20.97;100181.09;1719967;81;21880;-70
2021/09/01 06:27:49;;;;;;;4.08;3.27;;;;;;;41.23;20.83;100190.75;1768359;79;21371;-71
2021/09/01 06:30:22;;;;;;;3.20;2.90;;;;;;;41.59;20.31;100189.43;1714473;82;21360;-71
2021/09/01 06:32:56;;;;;;;4.37;2.90;;;;;;;41.92;19.53;100193.44;1717883;81;21188;-71
2021/09/01 06:35:29;;;;;;;3.72;2.98;;;;;;;42.20;19.10;100199.03;1737243;81;21208;-70
2021/09/01 06:38:03;;;;;;;4.33;2.77;;;;;;;42.45;18.92;100195.05;1764958;79;21747;-70
2021/09/01 06:40:37;;;;;;;4.37;2.87;;;;;;;42.69;18.40;100193.59;1769783;79;21289;-71
2021/09/01 06:43:12;;;;;;;3.00;2.80;;;;;;;43.01;17.98;100193.69;1731423;80;21900;-71
2021/09/01 06:45:46;;;;;;;3.98;2.75;;;;;;;43.29;17.69;100186.98;1769041;79;21274;-72
2021/09/01 06:48:21;;;;;;;3.85;2.55;;;;;;;43.15;17.51;100194.05;1774150;79;21210;-70
2021/09/01 06:50:54;;;;;;;3.67;2.83;;;;;;;43.03;17.33;100196.31;1765511;79;21184;-71
2021/09/01 06:53:27;;;;;;;2.65;2.37;;;;;;;43.14;17.44;100191.87;1773705;78;21362;-77
2021/09/01 06:56:01;;;;;;;2.70;2.35;;;;;;;42.94;17.19;100183.29;1735751;80;21354;-75
2021/09/01 06:58:35;;;;;;;2.72;1.90;;;;;;;42.81;17.32;100192.16;1769609;79;21191;-72
2021/09/01 07:01:08;;;;;;;2.50;1.90;;;;;;;42.77;17.16;100198.16;1700306;82;21874;-72
2021/09/01 07:03:43;;;;;;;3.42;1.98;;;;;;;42.97;17.05;100199.09;1772356;78;21799;-73
2021/09/01 07:06:16;;;;;;;2.70;2.12;;;;;;;43.44;16.61;100191.69;1768962;79;21412;-73
2021/09/01 07:08:51;;;;;;;4.87;2.27;;;;;;;43.55;16.04;100202.39;1718587;81;21321;-72
2021/09/01 07:11:24;;;;;;;2.70;2.27;;;;;;;43.71;15.97;100196.09;1772904;79;22694;-72
2021/09/01 07:13:57;;;;;;;2.80;1.90;;;;;;;43.19;16.15;100199.06;1773516;79;21329;-72
2021/09/01 07:16:32;;;;;;;2.17;1.80;;;;;;;42.50;16.80;100205.03;1770830;78;21286;-71
2021/09/01 07:19:06;;;;;;;2.42;1.77;;;;;;;41.91;17.31;100213.84;1730060;80;21337;-74
2021/09/01 07:21:40;;;;;;;2.80;1.85;;;;;;;41.45;17.52;100215.08;1768820;79;21169;-73
2021/09/01 07:24:14;;;;;;;3.20;1.80;;;;;;;40.76;17.77;100204.56;1738510;80;21290;-73
2021/09/01 07:26:47;;;;;;;2.17;1.95;;;;;;;40.24;17.75;100203.63;1779442;78;21817;-72
2021/09/01 07:29:21;;;;;;;4.50;1.82;;;;;;;39.25;18.69;100216.58;1777110;78;21239;-74
2021/09/01 07:31:54;;;;;;;1.95;1.70;;;;;;;38.70;19.48;100216.47;1782057;78;21248;-74
2021/09/01 07:34:27;;;;;;;2.45;2.08;;;;;;;38.71;19.84;100220.02;1776997;78;21727;-72
2021/09/01 07:37:01;;;;;;;2.47;1.70;;;;;;;38.47;19.57;100216.41;1739193;80;21459;-72
2021/09/01 07:39:34;;;;;;;3.50;2.10;;;;;;;38.20;19.82;100233.07;1765649;79;21338;-74
2021/09/01 07:42:07;;;;;;;2.90;2.00;;;;;;;38.56;19.95;100221.86;1744689;80;21329;-71
2021/09/01 07:44:40;;;;;;;2.40;2.20;;;;;;;39.14;19.83;100211.76;1773037;79;21331;-70
2021/09/01 07:47:13;;;;;;;2.30;2.00;;;;;;;39.86;19.24;100222.64;1772050;79;21260;-71
2021/09/01 07:49:47;;;;;;;3.80;2.10;;;;;;;40.43;18.45;100216.06;1773419;78;21170;-72
2021/09/01 07:52:20;;;;;;;3.47;2.30;;;;;;;41.14;17.83;100217.52;1750241;80;21177;-75
2021/09/01 07:54:53;;;;;;;2.92;2.20;;;;;;;41.75;17.03;100214.30;1724103;81;21296;-73
2021/09/01 07:57:26;;;;;;;2.58;2.00;;;;;;;41.93;16.65;100214.86;1723711;81;21365;-75
2021/09/01 07:59:59;;;;;;;2.52;2.33;;;;;;;41.84;16.70;100215.00;1732249;80;21330;-72
2021/09/01 08:02:34;;;;;;;2.98;2.00;;;;;;;41.51;17.01;100210.17;1729539;81;21366;-72
2021/09/01 08:05:08;;;;;;;2.80;2.40;;;;;;;41.64;17.28;100209.81;1721775;81;21304;-72
2021/09/01 08:07:41;;;;;;;2.35;2.15;;;;;;;42.32;16.80;100205.08;1726811;80;21319;-73
2021/09/01 08:10:15;;;;;;;2.80;2.40;;;;;;;43.17;16.08;100196.67;1722113;80;21186;-73
2021/09/01 08:12:49;;;;;;;3.50;2.20;;;;;;;43.82;15.63;100199.31;1722607;81;21886;-72
2021/09/01 08:15:23;;;;;;;3.90;2.15;;;;;;;44.26;15.14;100201.88;1725054;81;21189;-71
2021/09/01 08:17:56;;;;;;;2.90;2.20;;;;;;;44.66;14.50;100187.14;1723151;81;21363;-72
2021/09/01 08:20:29;;;;;;;2.33;2.12;;;;;;;44.66;14.51;100195.42;1724744;81;21428;-71
2021/09/01 08:23:02;;;;;;;3.12;1.90;;;;;;;44.51;14.28;100194.34;1726914;81;21213;-70
2021/09/01 08:25:35;;;;;;;2.37;2.17;;;;;;;44.45;14.40;100199.89;1725836;81;21300;-70
2021/09/01 08:28:08;;;;;;;2.60;2.40;;;;;;;44.59;14.01;100198.83;1726248;81;21295;-71
2021/09/01 08:30:41;;;;;;;4.42;2.50;;;;;;;44.55;13.86;100200.73;1721039;81;21348;-69
2021/09/01 08:33:14;;;;;;;2.95;2.52;;;;;;;44.18;13.95;100194.03;1720003;80;21727;-72
2021/09/01 08:35:47;;;;;;;2.58;2.27;;;;;;;43.93;14.33;100191.26;1773404;79;21216;-72
2021/09/01 08:38:20;;;;;;;7.00;2.25;;;;;;;44.05;14.36;100185.05;1733995;80;21229;-68
2021/09/01 08:40:53;;;;;;;4.08;2.27;;;;;;;43.99;14.46;100181.55;1768895;79;21183;-71
2021/09/01 08:43:26;;;;;;;2.65;2.45;;;;;;;43.99;14.32;100182.36;1771658;79;21344;-72
2021/09/01 08:46:02;;;;;;;2.87;2.62;;;;;;;43.77;14.22;100182.23;1720930;80;21274;-73
2021/09/01 08:48:34;;;;;;;2.65;2.40;;;;;;;43.54;14.45;100168.30;1715100;79;21271;-71
2021/09/01 08:51:09;;;;;;;4.85;2.08;;;;;;;43.37;14.80;100170.84;1769531;79;22591;-69
2021/09/01 08:53:42;;;;;;;3.20;2.30;;;;;;;42.78;15.14;100150.75;1766032;79;21280;-71
2021/09/01 08:56:15;;;;;;;2.98;2.40;;;;;;;42.15;15.56;100171.20;1778864;79;22342;-70
2021/09/01 08:58:48;;;;;;;2.40;2.20;;;;;;;41.65;15.60;100166.05;1718384;81;21280;-72
2021/09/01 09:01:52;;;;;;;5.20;2.83;;;;;;;41.52;15.10;100162.28;1778551;79;21252;-74
2021/09/01 09:04:38;;;;;;;2.77;2.25;;;;;;;41.36;15.43;100162.75;1717890;82;21295;-71
2021/09/01 09:07:11;;;;;;;4.08;2.35;;;;;;;41.16;15.90;100161.67;1725662;80;21398;-71
2021/09/01 09:09:44;;;;;;;5.10;2.98;;;;;;;40.57;16.61;100165.28;1722120;81;21287;-71
2021/09/01 09:12:19;;;;;;;3.33;2.72;;;;;;;39.93;17.21;100162.05;1726871;80;21284;-70
2021/09/01 09:14:51;;;;;;;2.67;2.47;;;;;;;39.65;17.71;100169.13;1769354;79;21893;-69
2021/09/01 09:17:25;;;;;;;5.53;2.98;;;;;;;39.66;17.96;100163.34;1772114;79;21872;-72
2021/09/01 09:20:03;;;;;;;3.15;2.60;;;;;;;39.87;17.86;100171.58;1746212;80;21330;-72
2021/09/01 09:22:37;;;;;;;2.90;2.60;;;;;;;39.96;17.52;100168.20;1771021;79;21807;-69
2021/09/01 09:25:25;;;;;;;3.15;2.30;;;;;;;40.03;17.30;100169.88;1713887;81;21377;-69
2021/09/01 09:28:00;;;;;;;2.62;2.42;;;;;;;40.09;17.47;100163.64;1750394;80;21247;-72
2021/09/01 09:30:42;;;;;;;2.60;2.40;;;;;;;39.77;17.08;100161.00;1776514;79;21234;-72
2021/09/01 09:33:18;;;;;;;2.67;2.40;;;;;;;39.10;17.93;100167.00;1730645;80;21451;-72
2021/09/01 09:36:05;;;;;;;2.58;2.37;;;;;;;38.60;18.45;100163.44;1728614;80;21287;-71
2021/09/01 09:38:47;;;;;;;2.30;2.10;;;;;;;38.38;18.63;100176.73;1770263;79;21807;-72
2021/09/01 09:41:25;;;;;;;6.20;2.27;;;;;;;38.06;18.81;100188.11;1715082;81;21823;-71
2021/09/01 09:44:01;;;;;;;5.00;2.35;;;;;;;37.78;18.71;100185.38;1776104;79;21383;-71
2021/09/01 09:46:49;;;;;;;7.25;1.82;;;;;;;37.50;19.13;100173.06;1775981;78;21787;-72
2021/09/01 09:49:30;;;;;;;3.45;2.02;;;;;;;37.04;18.60;100178.36;1773042;79;21231;-72
2021/09/01 09:52:08;;;;;;;2.45;1.98;;;;;;;36.53;19.52;100183.45;1721732;82;21200;-71
2021/09/01 09:54:41;;;;;;;5.22;1.87;;;;;;;36.20;19.82;100175.21;1764778;79;21236;-71
2021/09/01 09:57:14;;;;;;;2.65;2.20;;;;;;;35.71;20.13;100186.84;1772685;79;21272;-73
2021/09/01 09:59:47;;;;;;;;;;;;;;;34.89;20.90;100183.17;1770420;79;21255;-72
2021/09/01 10:02:19;;;;;;;3.02;2.10;;;;;;;34.29;21.44;100187.62;1774117;79;20175;-72
2021/09/01 10:04:53;;;;;;;1.98;1.70;;;;;;;33.80;21.92;100193.39;1766292;79;21237;-73
2021/09/01 10:07:25;;;;;;;;;;;;;;;33.42;21.95;100187.02;1769667;79;21617;-76
2021/09/01 10:09:59;;;;;;;2.80;1.72;;;;;;;33.01;22.17;100195.25;1774804;79;20672;-76
2021/09/01 10:12:32;;;;;;;2.22;1.80;;;;;;;32.60;23.03;100192.87;1770910;79;21357;-70
2021/09/01 10:15:06;;;;;;;2.40;1.70;;;;;;;32.30;23.16;100186.28;1770934;79;21244;-72
2021/09/01 10:17:44;;;;;;;3.90;1.87;;;;;;;31.96;23.80;100182.09;1771052;79;21200;-71
2021/09/01 10:20:21;;;;;;;3.33;2.15;;;;;;;31.68;24.11;100189.52;1773811;79;21810;-72
2021/09/01 10:23:04;;;;;;;3.52;2.08;;;;;;;31.40;24.34;100186.59;1773258;79;21353;-77
2021/09/01 10:25:39;;;;;;;;;;;;;;;31.07;25.15;100190.71;1775202;79;21916;-72
2021/09/01 10:28:32;;;;;;;1.80;1.57;;;;;;;30.91;25.22;100193.95;1773072;79;20300;-68
2021/09/01 10:31:16;;;;;;;4.08;2.37;;;;;;;30.76;25.19;100188.53;1773302;79;21860;-71
2021/09/01 10:33:53;;;;;;;2.33;1.60;;;;;;;30.61;25.39;100181.75;1774363;79;21334;-71
2021/09/01 10:36:37;;;;;;;4.22;1.90;;;;;;;30.28;25.72;100190.31;1763888;80;21964;-72
2021/09/01 10:39:31;;;;;;;4.50;2.10;;;;;;;29.97;26.47;100176.70;1761483;79;21259;-72
2021/09/01 10:42:39;;;;;;;1.60;1.50;;;;;;;29.67;26.42;100186.53;1771712;79;21303;-68
2021/09/01 10:45:34;;;;;;;2.40;1.70;;;;;;;29.38;26.80;100182.05;1772989;79;21941;-73
2021/09/01 10:48:11;;;;;;;2.10;1.80;;;;;;;29.22;26.92;100177.64;1762452;79;21209;-70
2021/09/01 10:50:56;;;;;;;3.35;1.80;;;;;;;29.11;27.34;100174.59;1767725;79;21309;-73
2021/09/01 10:53:29;;;;;;;2.85;1.65;;;;;;;29.07;27.65;100178.32;1770532;79;21847;-73
2021/09/01 10:56:08;;;;;;;3.20;1.67;;;;;;;28.95;27.07;100180.91;1773752;79;21176;-71
2021/09/01 10:58:43;;;;;;;1.60;1.47;;;;;;;28.75;27.30;100174.02;1717992;81;21440;-74
2021/09/01 11:01:22;;;;;;;2.30;1.50;;;;;;;28.61;27.56;100170.95;1740311;80;21335;-69
2021/09/01 11:04:04;;;;;;;1.80;1.50;;;;;;;28.51;27.56;100170.82;1732848;80;21406;-70
2021/09/01 11:06:38;;;;;;;1.50;1.40;;;;;;;28.45;28.03;100171.30;1770059;79;21329;-73
2021/09/01 11:09:16;;;;;;;3.52;1.60;;;;;;;28.31;28.67;100178.16;1776954;79;21910;-71
2021/09/01 11:11:58;;;;;;;1.62;1.50;;;;;;;28.23;28.91;100179.16;1772347;79;21346;-70
2021/09/01 11:14:47;;;;;;;1.50;1.40;;;;;;;28.22;28.74;100182.38;1715493;82;22144;-71
2021/09/01 11:17:25;;;;;;;1.90;1.67;;;;;;;28.19;29.16;100172.63;1719445;82;21248;-68
2021/09/01 11:20:00;;;;;;;3.37;1.80;;;;;;;28.28;29.16;100177.87;1776466;79;21205;-70
2021/09/01 11:22:37;;;;;;;2.98;2.15;;;;;;;28.32;28.33;100174.41;1757357;79;21292;-68
2021/09/01 11:25:15;;;;;;;2.52;2.33;;;;;;;28.29;28.41;100166.83;1726892;81;21324;-70
2021/09/01 11:27:57;;;;;;;3.08;1.87;;;;;;;28.26;28.41;100167.86;1732666;80;21302;-66
2021/09/01 11:30:32;;;;;;;1.72;1.60;;;;;;;28.15;28.82;100169.65;1734732;81;21291;-67
2021/09/01 11:33:05;;;;;;;1.80;1.70;;;;;;;28.09;28.71;100169.30;1733669;81;21781;-67
2021/09/01 11:35:38;;;;;;;7.00;2.10;;;;;;;27.99;29.00;100164.61;1764744;79;22198;-68
2021/09/01 11:38:11;;;;;;;2.12;1.40;;;;;;;27.86;29.12;100169.02;1727170;80;21320;-69
2021/09/01 11:40:44;;;;;;;3.05;2.50;;;;;;;27.80;29.17;100163.83;1771902;79;21322;-70
2021/09/01 11:43:21;;;;;;;2.08;1.80;;;;;;;27.86;29.34;100154.22;1708752;81;21390;-68
2021/09/01 11:45:55;;;;;;;2.60;1.82;;;;;;;27.87;29.60;100164.45;1779275;79;21319;-71
2021/09/01 11:48:30;;;;;;;;;;;;;;;27.82;29.25;100163.04;1777106;79;21322;-69
2021/09/01 11:51:08;;;;;;;1.67;1.30;;;;;;;27.77;29.35;100154.38;1749097;79;20300;-72
2021/09/01 11:53:41;;;;;;;3.62;1.70;;;;;;;27.79;29.18;100151.43;1745288;79;21500;-69
2021/09/01 11:56:14;;;;;;;1.95;1.50;;;;;;;27.80;29.10;100145.00;1775088;79;21219;-71
2021/09/01 11:59:05;;;;;;;1.62;1.40;;;;;;;27.77;29.05;100147.66;1768470;79;21353;-69
2021/09/01 12:02:00;;;;;;;3.95;1.67;;;;;;;27.75;29.20;100148.41;1755405;80;21774;-67
2021/09/01 12:04:33;;;;;;;3.30;1.67;;;;;;;27.72;29.74;100144.08;1767458;79;22267;-73
2021/09/01 12:07:08;;;;;;;12.28;2.92;;;;;;;27.75;30.22;100150.31;1667306;82;21311;-71
2021/09/01 12:09:41;;;;;;;4.17;1.70;;;;;;;27.73;29.81;100145.16;1776513;79;21544;-71
2021/09/01 12:12:15;;;;;;;3.92;1.52;;;;;;;27.70;29.49;100140.83;1725226;80;21813;-73
2021/09/01 12:14:49;;;;;;;3.17;1.40;;;;;;;27.64;29.68;100140.47;1725942;82;21816;-69
2021/09/01 12:17:23;;;;;;;;;;;;;;;27.61;29.42;100140.99;1776792;79;21279;-69
2021/09/01 12:19:59;;;;;;;;;;;;;;;27.55;29.47;100135.25;1774886;79;20235;-71
2021/09/01 12:22:42;;;;;;;11.60;3.55;;;;;;;27.45;29.88;100131.90;1770309;78;20290;-70
2021/09/01 12:25:18;;;;;;;3.22;1.98;;;;;;;27.37;29.91;100145.73;1777371;78;21787;-68
2021/09/01 12:28:17;;;;;;;3.58;2.30;;;;;;;27.33;30.09;100141.39;1742947;80;22135;-69
2021/09/01 12:30:45;;;;;;;5.78;3.55;;;;;;;27.38;30.34;100135.30;1732819;81;21251;-69
2021/09/01 12:33:21;;;;;;;4.60;3.15;;;;;;;27.46;30.21;100134.88;1768587;79;21238;-71
2021/09/01 12:36:01;;;;;;;6.55;3.37;;;;;;;27.47;30.13;100131.64;1767289;78;21252;-68
2021/09/01 12:38:34;;;;;;;8.35;3.95;;;;;;;27.39;30.18;100139.07;1725118;81;21289;-74
2021/09/01 12:41:24;;;;;;;;;;;;;;;27.32;30.23;100136.27;1722140;82;21350;-71